createdAt,value
2022-12-17T00:01:40.927Z,11.75
2022-12-17T00:07:01.660Z,12.60
2022-12-17T00:12:22.875Z,11.43
2022-12-17T00:17:43.239Z,11.48
2022-12-17T00:23:03.927Z,11.50
2022-12-17T00:28:32.034Z,12.50
2022-12-17T00:33:52.414Z,12.43
2022-12-17T00:39:13.021Z,15.00
2022-12-17T00:44:33.670Z,15.13
2022-12-17T00:49:56.179Z,15.05
2022-12-17T00:55:29.498Z,17.13
2022-12-17T01:00:50.311Z,13.40
2022-12-17T01:06:11.308Z,13.80
2022-12-17T01:11:32.804Z,13.18
2022-12-17T01:16:53.406Z,12.35
2022-12-17T01:22:16.738Z,12.13
2022-12-17T01:27:37.297Z,12.77
2022-12-17T01:32:57.894Z,11.80
2022-12-17T01:38:18.519Z,12.32
2022-12-17T01:43:54.194Z,12.30
2022-12-17T01:49:14.915Z,11.88
2022-12-17T01:54:37.778Z,10.35
2022-12-17T02:00:09.383Z,12.35
2022-12-17T02:05:57.102Z,12.10
2022-12-17T02:11:28.424Z,9.23
2022-12-17T02:17:09.040Z,10.35
2022-12-17T02:22:56.932Z,10.25
2022-12-17T02:28:18.446Z,9.25
2022-12-17T02:33:39.027Z,9.80
2022-12-17T02:38:59.848Z,9.17
2022-12-17T02:44:22.704Z,9.35
2022-12-17T02:49:43.925Z,8.98
2022-12-17T02:55:04.981Z,8.90
2022-12-17T03:00:27.822Z,8.45
2022-12-17T03:05:48.589Z,8.57
2022-12-17T03:11:09.003Z,8.23
2022-12-17T03:16:37.198Z,8.82
2022-12-17T03:21:58.265Z,8.35
2022-12-17T03:27:18.987Z,8.35
2022-12-17T03:32:39.769Z,8.73
2022-12-17T03:38:00.715Z,8.13
2022-12-17T03:43:26.144Z,9.95
2022-12-17T03:48:46.927Z,8.35
2022-12-17T03:54:07.311Z,8.57
2022-12-17T03:59:28.558Z,8.63
2022-12-17T04:04:49.316Z,8.63
2022-12-17T04:10:10.047Z,7.10
2022-12-17T04:15:30.913Z,9.03
2022-12-17T04:20:51.435Z,9.52
2022-12-17T04:26:12.063Z,9.18
2022-12-17T04:31:32.590Z,9.18
2022-12-17T04:36:53.058Z,8.43
2022-12-17T04:42:13.817Z,8.07
2022-12-17T04:47:34.638Z,8.43
2022-12-17T04:52:55.419Z,8.00
2022-12-17T04:58:21.575Z,9.20
2022-12-17T05:03:42.300Z,7.47
2022-12-17T05:09:02.907Z,7.53
2022-12-17T05:14:23.515Z,6.50
2022-12-17T05:19:44.205Z,6.93
2022-12-17T05:25:04.810Z,8.10
2022-12-17T05:30:25.638Z,8.00
2022-12-17T05:35:46.402Z,7.30
2022-12-17T05:41:07.074Z,8.67
2022-12-17T05:46:27.713Z,7.60
2022-12-17T05:51:48.334Z,8.43
2022-12-17T05:57:08.996Z,8.25
2022-12-17T06:02:29.377Z,8.10
2022-12-17T06:07:50.003Z,8.45
2022-12-17T06:13:15.292Z,8.50
2022-12-17T06:18:35.744Z,8.50
2022-12-17T06:23:56.643Z,9.20
2022-12-17T06:29:17.199Z,8.87
2022-12-17T06:34:37.909Z,9.68
2022-12-17T06:39:58.725Z,8.50
2022-12-17T06:45:19.265Z,9.10
2022-12-17T06:50:39.860Z,8.93
2022-12-17T06:56:00.683Z,8.90
2022-12-17T07:01:21.392Z,8.87
2022-12-17T07:06:42.327Z,8.80
2022-12-17T07:12:02.902Z,6.87
2022-12-17T07:17:23.649Z,8.65
2022-12-17T07:22:44.071Z,8.77
2022-12-17T07:28:15.095Z,8.27
2022-12-17T07:33:36.034Z,8.77
2022-12-17T07:38:56.857Z,8.38
2022-12-17T07:44:17.544Z,8.40
2022-12-17T07:49:38.280Z,9.65
2022-12-17T07:54:58.733Z,9.10
2022-12-17T08:00:19.451Z,8.50
2022-12-17T08:05:40.005Z,7.78
2022-12-17T08:11:00.689Z,7.82
2022-12-17T08:16:21.338Z,8.82
2022-12-17T08:21:42.106Z,8.68
2022-12-17T08:27:04.353Z,8.40
2022-12-17T08:32:24.981Z,8.57
2022-12-17T08:37:45.579Z,8.70
2022-12-17T08:43:06.279Z,7.82
2022-12-17T08:48:27.242Z,8.43
2022-12-17T08:53:47.923Z,9.50
2022-12-17T08:59:08.651Z,8.52
2022-12-17T09:04:29.450Z,8.68
2022-12-17T09:09:50.114Z,7.53
2022-12-17T09:15:10.844Z,8.35
2022-12-17T09:20:31.514Z,7.75
2022-12-17T09:25:57.877Z,9.02
2022-12-17T09:31:20.002Z,7.88
2022-12-17T09:36:40.576Z,7.68
2022-12-17T09:42:28.523Z,7.90
2022-12-17T09:48:12.156Z,9.20
2022-12-17T09:53:57.708Z,7.75
2022-12-17T09:59:18.128Z,7.50
2022-12-17T10:05:00.934Z,8.35
2022-12-17T10:10:33.545Z,7.55
2022-12-17T10:15:54.309Z,7.43
2022-12-17T10:21:21.457Z,7.13
2022-12-17T10:26:45.591Z,7.40
2022-12-17T10:32:06.504Z,7.65
2022-12-17T10:37:37.728Z,7.50
2022-12-17T10:42:58.607Z,7.93
2022-12-17T10:48:19.075Z,8.03
2022-12-17T10:53:42.525Z,6.95
2022-12-17T10:59:13.823Z,8.50
2022-12-17T11:04:43.647Z,8.95
2022-12-17T11:10:10.479Z,8.15
2022-12-17T11:15:39.632Z,8.70
2022-12-17T11:21:40.643Z,8.52
2022-12-17T11:27:04.078Z,9.30
2022-12-17T11:32:43.185Z,8.52
2022-12-17T11:38:17.029Z,8.77
2022-12-17T11:43:45.595Z,7.28
2022-12-17T11:49:18.910Z,8.65
2022-12-17T11:54:48.377Z,7.93
2022-12-17T12:00:21.038Z,7.85
2022-12-17T12:06:11.648Z,7.65
2022-12-17T12:11:50.673Z,8.75
2022-12-17T12:17:47.325Z,8.82
2022-12-17T12:23:28.934Z,8.20
2022-12-17T12:29:11.438Z,7.75
2022-12-17T12:34:38.419Z,7.95
2022-12-17T12:40:15.832Z,8.00
2022-12-17T12:45:43.504Z,8.48
2022-12-17T12:51:33.756Z,9.85
2022-12-17T12:56:55.709Z,8.80
2022-12-17T13:02:16.302Z,9.60
2022-12-17T13:07:28.025Z,9.07
2022-12-17T13:17:58.073Z,8.15
2022-12-17T13:23:13.747Z,8.30
2022-12-17T13:28:49.884Z,8.65
2022-12-17T13:34:12.209Z,8.50
2022-12-17T13:39:43.468Z,8.50
2022-12-17T13:44:46.698Z,8.68
2022-12-17T13:50:31.681Z,8.52
2022-12-17T13:55:25.691Z,8.85
2022-12-17T14:00:32.675Z,10.15
2022-12-17T14:05:38.081Z,8.88
2022-12-17T14:10:52.091Z,8.40
2022-12-17T14:15:54.131Z,8.68
2022-12-17T14:20:56.369Z,9.27
2022-12-17T14:25:59.149Z,9.25
2022-12-17T14:31:28.965Z,8.77
2022-12-17T14:36:32.205Z,8.98
2022-12-17T14:41:56.916Z,9.95
2022-12-17T14:47:16.094Z,10.90
2022-12-17T14:52:27.922Z,9.02
2022-12-17T14:57:29.931Z,9.25
2022-12-17T15:02:34.577Z,10.45
2022-12-17T15:07:36.758Z,10.07
2022-12-17T15:12:43.609Z,11.43
2022-12-17T15:17:45.692Z,11.63
2022-12-17T15:22:48.313Z,10.02
2022-12-17T15:27:50.518Z,9.15
2022-12-17T15:32:52.553Z,10.48
2022-12-17T15:37:54.608Z,9.77
2022-12-17T15:43:11.807Z,10.85
2022-12-17T15:48:16.403Z,10.40
2022-12-17T15:53:18.397Z,9.85
2022-12-17T15:58:20.362Z,11.32
2022-12-17T16:03:22.966Z,10.80
2022-12-17T16:08:25.104Z,11.15
2022-12-17T16:13:27.067Z,12.02
2022-12-17T16:18:29.333Z,9.23
2022-12-17T16:23:31.828Z,10.32
2022-12-17T16:28:35.101Z,11.27
2022-12-17T16:33:39.517Z,10.55
2022-12-17T16:38:50.284Z,11.10
2022-12-17T16:43:52.372Z,10.70
2022-12-17T16:48:56.305Z,12.38
2022-12-17T16:53:59.169Z,11.85
2022-12-17T16:59:04.646Z,11.95
2022-12-17T17:04:09.133Z,11.10
2022-12-17T17:09:12.379Z,12.70
2022-12-17T17:14:14.349Z,14.60
2022-12-17T17:19:16.661Z,12.73
2022-12-17T17:24:22.199Z,11.98
2022-12-17T17:29:24.544Z,12.43
2022-12-17T17:34:26.580Z,11.57
2022-12-17T17:39:31.885Z,11.95
2022-12-17T17:44:33.965Z,11.60
2022-12-17T17:49:35.995Z,12.73
2022-12-17T17:54:39.654Z,11.95
2022-12-17T17:59:41.913Z,12.82
2022-12-17T18:04:44.031Z,13.07
2022-12-17T18:09:46.631Z,11.95
2022-12-17T18:15:12.601Z,12.63
2022-12-17T18:20:11.281Z,13.15
2022-12-17T18:25:13.461Z,13.75
2022-12-17T18:30:16.505Z,14.95
2022-12-17T18:35:18.750Z,13.40
2022-12-17T18:40:22.291Z,13.02
2022-12-17T18:45:24.360Z,13.82
2022-12-17T18:50:26.364Z,12.75
2022-12-17T18:55:28.402Z,13.23
2022-12-17T19:00:30.422Z,12.07
2022-12-17T19:05:32.574Z,12.43
2022-12-17T19:10:35.503Z,13.40
2022-12-17T19:15:37.522Z,12.38
2022-12-17T19:20:39.550Z,14.00
2022-12-17T19:25:41.631Z,13.23
2022-12-17T19:30:44.133Z,10.93
2022-12-17T19:35:46.118Z,13.10
2022-12-17T19:40:52.230Z,13.10
2022-12-17T19:46:01.786Z,11.45
2022-12-17T19:51:06.574Z,10.98
2022-12-17T19:56:12.480Z,10.80
2022-12-17T20:01:20.997Z,10.80
2022-12-17T20:06:27.092Z,11.52
2022-12-17T20:11:35.494Z,11.55
2022-12-17T20:16:49.743Z,10.52
2022-12-17T20:21:52.699Z,11.95
2022-12-17T20:26:55.112Z,11.70
2022-12-17T20:31:57.409Z,11.35
2022-12-17T20:36:59.462Z,10.70
2022-12-17T20:42:01.488Z,11.15
2022-12-17T20:47:03.556Z,11.57
2022-12-17T20:52:05.583Z,10.93
2022-12-17T20:57:07.562Z,12.18
2022-12-17T21:02:10.383Z,11.25
2022-12-17T21:07:12.551Z,11.40
2022-12-17T21:12:14.927Z,11.32
2022-12-17T21:17:16.993Z,11.00
2022-12-17T21:22:19.104Z,10.40
2022-12-17T21:27:22.450Z,10.82
2022-12-17T21:32:28.821Z,9.88
2022-12-17T21:37:35.492Z,9.57
2022-12-17T21:42:56.132Z,9.75
2022-12-17T21:47:59.256Z,8.98
2022-12-17T21:53:01.321Z,8.77
2022-12-17T21:58:04.046Z,7.68
2022-12-17T22:03:05.989Z,6.63
2022-12-17T22:08:08.106Z,7.10
2022-12-17T22:13:29.294Z,6.43
2022-12-17T22:18:31.420Z,6.90
2022-12-17T22:23:33.634Z,6.63
2022-12-17T22:28:37.555Z,7.15
2022-12-17T22:34:34.346Z,7.03
2022-12-17T22:41:24.149Z,8.73
2022-12-17T22:44:43.984Z,8.48
2022-12-17T22:49:49.420Z,8.20
2022-12-17T22:54:51.576Z,8.02
2022-12-17T22:59:53.882Z,6.95
2022-12-17T23:04:55.876Z,6.20
2022-12-17T23:09:58.991Z,5.28
2022-12-17T23:15:01.012Z,5.25
2022-12-17T23:20:03.384Z,5.30
2022-12-17T23:25:06.803Z,4.25
2022-12-17T23:30:09.693Z,4.75
2022-12-17T23:35:12.610Z,4.43
2022-12-17T23:40:15.899Z,4.07
2022-12-17T23:45:17.941Z,3.67
2022-12-17T23:50:20.057Z,3.90
2022-12-17T23:55:22.024Z,4.13
